createdAt,value
2023-05-17T00:01:47.274Z,100.00
2023-05-17T00:04:13.919Z,100.00
2023-05-17T00:06:41.096Z,100.00
2023-05-17T00:09:07.733Z,100.00
2023-05-17T00:11:34.394Z,100.00
2023-05-17T00:14:00.973Z,100.00
2023-05-17T00:16:27.668Z,100.00
2023-05-17T00:18:54.620Z,100.00
2023-05-17T00:21:21.267Z,100.00
2023-05-17T00:23:47.757Z,100.00
2023-05-17T00:26:14.276Z,100.00
2023-05-17T00:28:40.772Z,100.00
2023-05-17T00:31:07.324Z,100.00
2023-05-17T00:33:33.871Z,100.00
2023-05-17T00:36:00.438Z,100.00
2023-05-17T00:38:26.925Z,100.00
2023-05-17T00:40:54.198Z,100.00
2023-05-17T00:43:20.856Z,100.00
2023-05-17T00:45:49.337Z,100.00
2023-05-17T00:48:16.229Z,100.00
2023-05-17T00:50:43.197Z,100.00
2023-05-17T00:53:10.000Z,100.00
2023-05-17T00:55:36.600Z,100.00
2023-05-17T00:58:08.871Z,100.00
2023-05-17T01:00:37.334Z,100.00
2023-05-17T01:03:04.197Z,100.00
2023-05-17T01:05:31.495Z,100.00
2023-05-17T01:07:58.050Z,100.00
2023-05-17T01:10:35.031Z,100.00
2023-05-17T01:13:42.325Z,100.00
2023-05-17T01:16:37.068Z,100.00
2023-05-17T01:19:40.132Z,100.00
2023-05-17T01:22:45.981Z,100.00
2023-05-17T01:25:47.065Z,100.00
2023-05-17T01:28:15.026Z,100.00
2023-05-17T01:30:43.771Z,100.00
2023-05-17T01:33:11.222Z,100.00
2023-05-17T01:35:37.839Z,100.00
2023-05-17T01:38:04.355Z,100.00
2023-05-17T01:40:35.462Z,100.00
2023-05-17T01:43:15.468Z,100.00
2023-05-17T01:45:49.907Z,100.00
2023-05-17T01:48:19.511Z,100.00
2023-05-17T01:50:51.121Z,100.00
2023-05-17T01:53:29.205Z,100.00
2023-05-17T01:56:01.282Z,100.00
2023-05-17T01:58:30.651Z,100.00
2023-05-17T02:01:00.561Z,100.00
2023-05-17T02:03:29.037Z,100.00
2023-05-17T02:05:55.598Z,100.00
2023-05-17T02:08:22.227Z,100.00
2023-05-17T02:10:48.776Z,100.00
2023-05-17T02:13:15.233Z,100.00
2023-05-17T02:15:41.711Z,100.00
2023-05-17T02:18:08.353Z,100.00
2023-05-17T02:20:35.026Z,100.00
2023-05-17T02:23:01.545Z,100.00
2023-05-17T02:25:28.277Z,100.00
2023-05-17T02:27:55.428Z,100.00
2023-05-17T02:30:22.330Z,100.00
2023-05-17T02:32:48.925Z,100.00
2023-05-17T02:35:15.825Z,100.00
2023-05-17T02:37:42.283Z,100.00
2023-05-17T02:40:09.923Z,100.00
2023-05-17T02:42:36.957Z,100.00
2023-05-17T02:45:03.944Z,100.00
2023-05-17T02:47:30.653Z,100.00
2023-05-17T02:49:59.910Z,100.00
2023-05-17T02:52:26.406Z,100.00
2023-05-17T02:54:52.929Z,100.00
2023-05-17T02:57:19.489Z,100.00
2023-05-17T02:59:46.098Z,100.00
2023-05-17T03:02:12.880Z,100.00
2023-05-17T03:04:39.445Z,100.00
2023-05-17T03:07:07.251Z,100.00
2023-05-17T03:09:34.320Z,100.00
2023-05-17T03:12:01.104Z,100.00
2023-05-17T03:14:27.625Z,100.00
2023-05-17T03:16:54.117Z,100.00
2023-05-17T03:19:20.833Z,100.00
2023-05-17T03:21:47.366Z,100.00
2023-05-17T03:24:13.878Z,100.00
2023-05-17T03:26:40.413Z,100.00
2023-05-17T03:29:06.932Z,100.00
2023-05-17T03:31:33.531Z,100.00
2023-05-17T03:34:00.077Z,100.00
2023-05-17T03:36:26.581Z,100.00
2023-05-17T03:38:53.042Z,100.00
2023-05-17T03:41:19.731Z,100.00
2023-05-17T03:43:46.233Z,100.00
2023-05-17T03:46:12.822Z,100.00
2023-05-17T03:48:39.382Z,100.00
2023-05-17T03:51:06.249Z,100.00
2023-05-17T03:53:32.754Z,100.00
2023-05-17T03:55:59.229Z,100.00
2023-05-17T03:58:25.726Z,100.00
2023-05-17T04:00:52.230Z,100.00
2023-05-17T04:03:20.129Z,100.00
2023-05-17T04:05:47.128Z,100.00
2023-05-17T04:08:16.586Z,100.00
2023-05-17T04:10:43.265Z,100.00
2023-05-17T04:13:09.820Z,100.00
2023-05-17T04:15:36.746Z,100.00
2023-05-17T04:18:03.364Z,100.00
2023-05-17T04:20:30.127Z,100.00
2023-05-17T04:22:56.726Z,100.00
2023-05-17T04:25:24.627Z,100.00
2023-05-17T04:27:51.140Z,100.00
2023-05-17T04:30:17.766Z,100.00
2023-05-17T04:32:44.294Z,100.00
2023-05-17T04:35:10.886Z,100.00
2023-05-17T04:37:39.793Z,100.00
2023-05-17T04:40:07.915Z,100.00
2023-05-17T04:42:34.890Z,100.00
2023-05-17T04:45:01.573Z,100.00
2023-05-17T04:47:28.285Z,100.00
2023-05-17T04:49:56.233Z,100.00
2023-05-17T04:52:22.743Z,100.00
2023-05-17T04:54:50.212Z,100.00
2023-05-17T04:57:16.803Z,100.00
2023-05-17T04:59:43.345Z,100.00
2023-05-17T05:02:10.579Z,100.00
2023-05-17T05:04:37.223Z,100.00
2023-05-17T05:07:03.922Z,100.00
2023-05-17T05:09:30.497Z,100.00
2023-05-17T05:11:57.069Z,100.00
2023-05-17T05:14:23.640Z,100.00
2023-05-17T05:16:50.134Z,100.00
2023-05-17T05:19:16.927Z,100.00
2023-05-17T05:21:46.482Z,100.00
2023-05-17T05:24:12.965Z,100.00
2023-05-17T05:26:39.568Z,100.00
2023-05-17T05:29:06.103Z,100.00
2023-05-17T05:31:32.657Z,100.00
2023-05-17T05:33:59.131Z,100.00
2023-05-17T05:36:25.850Z,100.00
2023-05-17T05:38:54.473Z,100.00
2023-05-17T05:41:21.046Z,100.00
2023-05-17T05:43:47.562Z,100.00
2023-05-17T05:46:14.067Z,100.00
2023-05-17T05:48:43.439Z,100.00
2023-05-17T05:51:10.852Z,100.00
2023-05-17T05:53:38.600Z,100.00
2023-05-17T05:56:05.429Z,100.00
2023-05-17T05:58:32.125Z,100.00
2023-05-17T06:00:59.978Z,100.00
2023-05-17T06:03:26.625Z,100.00
2023-05-17T06:05:53.454Z,100.00
2023-05-17T06:08:20.031Z,100.00
2023-05-17T06:10:46.914Z,100.00
2023-05-17T06:13:13.853Z,100.00
2023-05-17T06:15:40.817Z,100.00
2023-05-17T06:18:07.447Z,100.00
2023-05-17T06:20:34.017Z,100.00
2023-05-17T06:23:00.576Z,100.00
2023-05-17T06:25:27.124Z,100.00
2023-05-17T06:27:53.624Z,100.00
2023-05-17T06:30:20.314Z,100.00
2023-05-17T06:32:46.857Z,100.00
2023-05-17T06:35:13.422Z,100.00
2023-05-17T06:37:39.935Z,100.00
2023-05-17T06:40:16.101Z,100.00
2023-05-17T06:42:43.786Z,100.00
2023-05-17T06:45:10.957Z,100.00
2023-05-17T06:47:37.714Z,100.00
2023-05-17T06:50:04.521Z,100.00
2023-05-17T06:52:31.108Z,100.00
2023-05-17T06:54:57.685Z,100.00
2023-05-17T06:57:24.859Z,100.00
2023-05-17T06:59:52.238Z,100.00
2023-05-17T07:02:19.416Z,100.00
2023-05-17T07:04:46.141Z,100.00
2023-05-17T07:07:12.766Z,100.00
2023-05-17T07:09:39.921Z,100.00
2023-05-17T07:12:06.862Z,100.00
2023-05-17T07:14:33.518Z,100.00
2023-05-17T07:17:00.055Z,100.00
2023-05-17T07:19:26.744Z,100.00
2023-05-17T07:21:53.397Z,100.00
2023-05-17T07:24:19.905Z,100.00
2023-05-17T07:26:46.452Z,100.00
2023-05-17T07:29:13.111Z,100.00
2023-05-17T07:31:39.655Z,100.00
2023-05-17T07:34:06.189Z,100.00
2023-05-17T07:36:32.770Z,100.00
2023-05-17T07:38:59.333Z,100.00
2023-05-17T07:41:27.124Z,100.00
2023-05-17T07:43:53.702Z,100.00
2023-05-17T07:46:20.346Z,100.00
2023-05-17T07:48:47.030Z,100.00
2023-05-17T07:51:13.911Z,100.00
2023-05-17T07:53:40.600Z,100.00
2023-05-17T07:56:07.314Z,100.00
2023-05-17T07:58:33.978Z,100.00
2023-05-17T08:01:00.475Z,100.00
2023-05-17T08:03:28.439Z,100.00
2023-05-17T08:05:55.073Z,100.00
2023-05-17T08:08:21.916Z,100.00
2023-05-17T08:10:48.498Z,100.00
2023-05-17T08:13:15.161Z,100.00
2023-05-17T08:15:41.663Z,100.00
2023-05-17T08:18:08.263Z,100.00
2023-05-17T08:20:34.883Z,100.00
2023-05-17T08:23:01.487Z,100.00
2023-05-17T08:25:30.275Z,100.00
2023-05-17T08:27:56.942Z,100.00
2023-05-17T08:30:28.981Z,100.00
2023-05-17T08:32:56.760Z,100.00
2023-05-17T08:35:26.958Z,100.00
2023-05-17T08:37:55.056Z,100.00
2023-05-17T08:40:21.963Z,100.00
2023-05-17T08:42:53.041Z,100.00
2023-05-17T08:45:19.729Z,100.00
2023-05-17T08:47:46.618Z,100.00
2023-05-17T08:50:14.390Z,100.00
2023-05-17T08:52:44.814Z,100.00
2023-05-17T08:55:11.954Z,100.00
2023-05-17T08:57:40.374Z,100.00
2023-05-17T09:00:13.509Z,100.00
2023-05-17T09:02:42.177Z,100.00
2023-05-17T09:05:10.879Z,100.00
2023-05-17T09:07:37.714Z,100.00
2023-05-17T09:10:05.813Z,100.00
2023-05-17T09:12:36.730Z,100.00
2023-05-17T09:15:20.856Z,100.00
2023-05-17T09:17:54.572Z,100.00
2023-05-17T09:20:25.040Z,100.00
2023-05-17T09:22:52.481Z,98.69
2023-05-17T09:25:20.222Z,97.08
2023-05-17T09:27:46.814Z,95.65
2023-05-17T09:30:13.458Z,100.00
2023-05-17T09:32:47.013Z,96.76
2023-05-17T09:35:14.039Z,98.70
2023-05-17T09:37:43.229Z,96.75
2023-05-17T09:40:10.677Z,91.30
2023-05-17T09:42:39.147Z,91.88
2023-05-17T09:45:05.952Z,99.14
2023-05-17T09:47:35.245Z,98.23
2023-05-17T09:50:03.696Z,91.78
2023-05-17T09:52:35.166Z,90.98
2023-05-17T09:55:01.871Z,87.57
2023-05-17T09:57:36.881Z,91.15
2023-05-17T10:00:12.072Z,92.07
2023-05-17T10:02:41.239Z,94.32
2023-05-17T10:05:11.962Z,97.20
2023-05-17T10:07:38.953Z,100.00
2023-05-17T10:10:06.596Z,97.84
2023-05-17T10:12:38.505Z,96.63
2023-05-17T10:15:05.618Z,93.28
2023-05-17T10:17:32.325Z,94.75
2023-05-17T10:19:59.377Z,93.51
2023-05-17T10:22:27.541Z,93.74
2023-05-17T10:24:56.089Z,91.76
2023-05-17T10:27:23.928Z,94.14
2023-05-17T10:29:53.431Z,94.33
2023-05-17T10:32:23.508Z,96.27
2023-05-17T10:34:58.089Z,88.47
2023-05-17T10:37:33.834Z,83.38
2023-05-17T10:40:00.689Z,87.38
2023-05-17T10:42:28.013Z,86.40
2023-05-17T10:44:54.811Z,87.83
2023-05-17T10:47:22.292Z,83.29
2023-05-17T10:49:51.551Z,78.86
2023-05-17T10:52:21.266Z,82.15
2023-05-17T10:54:50.140Z,75.22
2023-05-17T10:57:22.422Z,77.34
2023-05-17T11:00:00.739Z,80.89
2023-05-17T11:02:28.858Z,83.34
2023-05-17T11:05:00.440Z,74.03
2023-05-17T11:07:33.748Z,79.96
2023-05-17T11:10:00.471Z,76.67
2023-05-17T11:12:38.395Z,71.08
2023-05-17T11:15:12.168Z,74.41
2023-05-17T11:17:44.703Z,73.54
2023-05-17T11:20:32.618Z,79.40
2023-05-17T11:23:02.198Z,72.30
2023-05-17T11:25:36.905Z,67.91
2023-05-17T11:28:08.894Z,74.61
2023-05-17T11:30:41.922Z,73.23
2023-05-17T11:33:20.484Z,67.87
2023-05-17T11:35:54.728Z,68.58
2023-05-17T11:38:24.394Z,71.49
2023-05-17T11:40:54.855Z,70.88
2023-05-17T11:43:23.336Z,67.81
2023-05-17T11:45:53.409Z,61.16
2023-05-17T11:48:22.842Z,61.35
2023-05-17T11:50:51.275Z,61.45
2023-05-17T11:53:18.693Z,57.87
2023-05-17T11:55:47.957Z,53.73
2023-05-17T11:58:21.073Z,60.22
2023-05-17T12:00:53.698Z,53.31
2023-05-17T12:03:21.402Z,58.09
2023-05-17T12:05:50.160Z,56.17
2023-05-17T12:08:19.137Z,55.51
2023-05-17T12:10:50.853Z,59.70
2023-05-17T12:13:17.863Z,55.83
2023-05-17T12:15:48.496Z,49.81
2023-05-17T12:18:15.157Z,52.61
2023-05-17T12:20:57.834Z,49.05
2023-05-17T12:23:33.218Z,47.52
2023-05-17T12:26:06.636Z,47.20
2023-05-17T12:28:33.992Z,47.49
2023-05-17T12:31:04.980Z,45.41
2023-05-17T12:33:37.079Z,44.43
2023-05-17T12:36:04.431Z,38.85
2023-05-17T12:38:35.078Z,39.01
2023-05-17T12:41:06.642Z,40.78
2023-05-17T12:43:34.817Z,40.42
2023-05-17T12:46:07.229Z,42.94
2023-05-17T12:48:38.294Z,42.68
2023-05-17T12:51:12.184Z,41.65
2023-05-17T12:53:49.492Z,43.72
2023-05-17T12:56:18.060Z,43.17
2023-05-17T12:59:03.181Z,42.60
2023-05-17T13:01:43.767Z,42.72
2023-05-17T13:04:11.511Z,44.43
2023-05-17T13:06:58.798Z,38.26
2023-05-17T13:09:28.853Z,38.63
2023-05-17T13:12:00.923Z,40.45
2023-05-17T13:14:44.365Z,41.22
2023-05-17T13:17:15.112Z,40.86
2023-05-17T13:19:42.354Z,42.11
2023-05-17T13:22:09.133Z,42.19
2023-05-17T13:24:37.734Z,41.99
2023-05-17T13:27:05.651Z,42.53
2023-05-17T13:29:39.616Z,43.19
2023-05-17T13:32:08.224Z,44.74
2023-05-17T13:34:35.572Z,43.79
2023-05-17T13:37:02.160Z,41.78
2023-05-17T13:39:28.701Z,42.73
2023-05-17T13:41:55.263Z,43.59
2023-05-17T13:44:21.999Z,38.07
2023-05-17T13:46:48.488Z,37.53
2023-05-17T13:49:15.256Z,39.57
2023-05-17T13:51:42.922Z,36.37
2023-05-17T13:54:10.573Z,37.33
2023-05-17T13:56:37.371Z,34.93
2023-05-17T13:59:04.031Z,32.92
2023-05-17T14:01:30.906Z,32.49
2023-05-17T14:03:57.753Z,33.30
2023-05-17T14:06:24.512Z,33.22
2023-05-17T14:08:53.142Z,34.68
2023-05-17T14:11:19.717Z,34.03
2023-05-17T14:13:46.320Z,34.41
2023-05-17T14:16:12.812Z,32.40
2023-05-17T14:18:40.718Z,32.77
2023-05-17T14:21:08.278Z,34.21
2023-05-17T14:23:35.524Z,33.49
2023-05-17T14:26:05.107Z,33.97
2023-05-17T14:28:31.903Z,35.51
2023-05-17T14:30:58.629Z,33.43
2023-05-17T14:33:26.835Z,33.46
2023-05-17T14:35:53.577Z,34.24
2023-05-17T14:38:22.292Z,35.21
2023-05-17T14:40:48.985Z,35.67
2023-05-17T14:43:15.898Z,35.25
2023-05-17T14:45:42.486Z,35.68
2023-05-17T14:48:09.194Z,34.76
2023-05-17T14:50:35.842Z,35.27
2023-05-17T14:53:02.522Z,35.04
2023-05-17T14:55:30.104Z,34.03
2023-05-17T14:57:57.987Z,35.40
2023-05-17T15:00:24.866Z,35.29
2023-05-17T15:02:51.436Z,35.63
2023-05-17T15:05:18.617Z,37.11
2023-05-17T15:07:45.278Z,36.24
2023-05-17T15:10:13.045Z,38.10
2023-05-17T15:12:39.556Z,37.43
2023-05-17T15:15:06.739Z,39.29
2023-05-17T15:17:33.855Z,38.42
2023-05-17T15:20:00.585Z,38.72
2023-05-17T15:22:27.118Z,40.14
2023-05-17T15:24:54.333Z,41.00
2023-05-17T15:27:21.040Z,41.99
2023-05-17T15:29:47.974Z,44.75
2023-05-17T15:32:14.599Z,45.50
2023-05-17T15:34:41.473Z,44.27
2023-05-17T15:37:08.021Z,45.22
2023-05-17T15:39:34.557Z,44.50
2023-05-17T15:42:01.095Z,45.07
2023-05-17T15:44:27.634Z,46.84
2023-05-17T15:46:54.231Z,47.38
2023-05-17T15:49:21.083Z,47.08
2023-05-17T15:51:47.767Z,47.00
2023-05-17T15:54:14.818Z,47.70
2023-05-17T15:56:42.056Z,49.56
2023-05-17T15:59:08.698Z,50.15
2023-05-17T16:01:35.592Z,50.53
2023-05-17T16:04:08.713Z,50.01
2023-05-17T16:06:36.733Z,49.12
2023-05-17T16:09:03.425Z,48.44
2023-05-17T16:11:30.003Z,49.05
2023-05-17T16:13:57.124Z,48.84
2023-05-17T16:16:23.716Z,48.37
2023-05-17T16:18:50.641Z,46.13
2023-05-17T16:21:17.280Z,46.07
2023-05-17T16:23:43.891Z,44.71
2023-05-17T16:26:10.770Z,44.12
2023-05-17T16:28:37.390Z,42.86
2023-05-17T16:31:05.621Z,43.33
2023-05-17T16:33:34.194Z,42.44
2023-05-17T16:36:00.962Z,43.14
2023-05-17T16:38:27.545Z,43.23
2023-05-17T16:40:54.104Z,43.98
2023-05-17T16:43:20.618Z,44.09
2023-05-17T16:45:47.127Z,43.93
2023-05-17T16:48:15.193Z,44.24
2023-05-17T16:50:42.326Z,45.20
2023-05-17T16:53:09.057Z,46.83
2023-05-17T16:55:36.604Z,48.12
2023-05-17T16:58:03.599Z,47.64
2023-05-17T17:00:31.232Z,48.19
2023-05-17T17:02:58.551Z,48.52
2023-05-17T17:05:25.760Z,48.04
2023-05-17T17:07:52.465Z,49.11
2023-05-17T17:10:20.135Z,50.83
2023-05-17T17:12:48.024Z,49.22
2023-05-17T17:15:15.454Z,50.82
2023-05-17T17:17:42.669Z,51.29
2023-05-17T17:20:09.789Z,53.46
2023-05-17T17:22:36.304Z,54.95
2023-05-17T17:25:03.044Z,54.30
2023-05-17T17:27:29.564Z,54.07
2023-05-17T17:29:56.169Z,56.39
2023-05-17T17:32:22.743Z,57.19
2023-05-17T17:34:49.368Z,56.14
2023-05-17T17:37:15.931Z,60.38
2023-05-17T17:39:42.498Z,60.71
2023-05-17T17:42:10.390Z,62.12
2023-05-17T17:44:36.946Z,62.25
2023-05-17T17:47:03.533Z,64.89
2023-05-17T17:49:30.257Z,65.20
2023-05-17T17:51:58.200Z,65.77
2023-05-17T17:54:24.798Z,65.26
2023-05-17T17:56:51.340Z,65.21
2023-05-17T17:59:17.847Z,65.80
2023-05-17T18:01:44.618Z,66.36
2023-05-17T18:04:13.542Z,67.91
2023-05-17T18:06:41.807Z,71.21
2023-05-17T18:09:08.684Z,72.08
2023-05-17T18:11:35.356Z,73.91
2023-05-17T18:14:02.581Z,73.66
2023-05-17T18:16:29.389Z,76.02
2023-05-17T18:18:56.340Z,73.55
2023-05-17T18:21:23.318Z,76.54
2023-05-17T18:23:49.918Z,75.20
2023-05-17T18:26:16.410Z,77.35
2023-05-17T18:28:43.291Z,75.28
2023-05-17T18:31:10.598Z,78.89
2023-05-17T18:33:37.183Z,78.38
2023-05-17T18:36:03.936Z,81.06
2023-05-17T18:38:30.544Z,78.03
2023-05-17T18:40:57.091Z,81.29
2023-05-17T18:43:23.600Z,79.48
2023-05-17T18:45:51.320Z,83.26
2023-05-17T18:48:18.076Z,80.17
2023-05-17T18:50:44.867Z,87.17
2023-05-17T18:53:12.853Z,85.12
2023-05-17T18:55:39.557Z,86.42
2023-05-17T18:58:06.059Z,87.39
2023-05-17T19:00:33.107Z,85.75
2023-05-17T19:02:59.822Z,86.95
2023-05-17T19:05:26.391Z,86.73
2023-05-17T19:07:52.932Z,85.68
2023-05-17T19:10:20.696Z,87.63
2023-05-17T19:12:47.274Z,88.55
2023-05-17T19:15:13.888Z,88.95
2023-05-17T19:17:40.607Z,89.55
2023-05-17T19:20:08.073Z,93.16
2023-05-17T19:22:35.824Z,92.36
2023-05-17T19:25:02.606Z,94.21
2023-05-17T19:27:29.457Z,97.90
2023-05-17T19:29:56.069Z,92.95
2023-05-17T19:32:22.862Z,96.38
2023-05-17T19:34:49.878Z,99.24
2023-05-17T19:37:16.638Z,100.00
2023-05-17T19:39:43.144Z,100.00
2023-05-17T19:42:09.645Z,100.00
2023-05-17T19:44:36.258Z,100.00
2023-05-17T19:47:02.827Z,100.00
2023-05-17T19:49:29.313Z,100.00
2023-05-17T19:52:00.558Z,100.00
2023-05-17T19:54:30.160Z,100.00
2023-05-17T19:56:57.482Z,100.00
2023-05-17T19:59:24.082Z,100.00
2023-05-17T20:01:50.987Z,100.00
2023-05-17T20:04:17.645Z,100.00
2023-05-17T20:06:44.275Z,100.00
2023-05-17T20:09:11.228Z,100.00
2023-05-17T20:11:37.923Z,100.00
2023-05-17T20:14:04.540Z,100.00
2023-05-17T20:16:31.252Z,100.00
2023-05-17T20:18:58.501Z,100.00
2023-05-17T20:21:26.348Z,100.00
2023-05-17T20:24:00.529Z,100.00
2023-05-17T20:26:31.508Z,100.00
2023-05-17T20:28:59.133Z,100.00
2023-05-17T20:31:26.141Z,100.00
2023-05-17T20:33:53.121Z,100.00
2023-05-17T20:36:19.816Z,100.00
2023-05-17T20:38:46.832Z,100.00
2023-05-17T20:41:15.013Z,100.00
2023-05-17T20:43:45.268Z,100.00
2023-05-17T20:46:15.976Z,100.00
2023-05-17T20:48:43.219Z,100.00
2023-05-17T20:51:10.789Z,100.00
2023-05-17T20:53:38.000Z,100.00
2023-05-17T20:56:05.417Z,100.00
2023-05-17T20:58:32.221Z,100.00
2023-05-17T21:01:02.708Z,100.00
2023-05-17T21:03:34.210Z,100.00
2023-05-17T21:06:02.203Z,100.00
2023-05-17T21:08:29.016Z,100.00
2023-05-17T21:10:56.160Z,100.00
2023-05-17T21:13:25.440Z,100.00
2023-05-17T21:15:53.450Z,100.00
2023-05-17T21:18:20.260Z,100.00
2023-05-17T21:20:46.966Z,100.00
2023-05-17T21:23:13.528Z,100.00
2023-05-17T21:25:40.071Z,100.00
2023-05-17T21:28:07.605Z,100.00
2023-05-17T21:30:34.174Z,100.00
2023-05-17T21:33:00.739Z,100.00
2023-05-17T21:35:27.263Z,100.00
2023-05-17T21:37:53.752Z,100.00
2023-05-17T21:40:26.296Z,100.00
2023-05-17T21:42:52.921Z,100.00
2023-05-17T21:45:19.537Z,100.00
2023-05-17T21:47:46.064Z,100.00
2023-05-17T21:50:12.637Z,100.00
2023-05-17T21:52:39.171Z,100.00
2023-05-17T21:55:06.460Z,100.00
2023-05-17T21:57:36.078Z,100.00
2023-05-17T22:00:04.874Z,100.00
2023-05-17T22:02:38.393Z,100.00
2023-05-17T22:05:05.711Z,100.00
2023-05-17T22:07:32.230Z,100.00
2023-05-17T22:09:58.834Z,100.00
2023-05-17T22:12:27.134Z,100.00
2023-05-17T22:15:00.288Z,100.00
2023-05-17T22:17:35.220Z,100.00
2023-05-17T22:20:11.349Z,100.00
2023-05-17T22:22:38.168Z,100.00
2023-05-17T22:25:05.475Z,100.00
2023-05-17T22:27:32.005Z,100.00
2023-05-17T22:29:59.745Z,100.00
2023-05-17T22:32:26.302Z,100.00
2023-05-17T22:34:53.061Z,100.00
2023-05-17T22:37:22.800Z,100.00
2023-05-17T22:39:49.794Z,100.00
2023-05-17T22:42:16.419Z,100.00
2023-05-17T22:44:42.984Z,100.00
2023-05-17T22:47:14.551Z,100.00
2023-05-17T22:49:41.661Z,100.00
2023-05-17T22:52:08.954Z,100.00
2023-05-17T22:54:37.026Z,100.00
2023-05-17T22:57:09.698Z,100.00
2023-05-17T22:59:36.289Z,100.00
2023-05-17T23:02:02.889Z,100.00
2023-05-17T23:04:30.070Z,100.00
2023-05-17T23:07:02.306Z,100.00
2023-05-17T23:09:33.712Z,100.00
2023-05-17T23:12:05.525Z,100.00
2023-05-17T23:14:34.061Z,100.00
2023-05-17T23:17:01.968Z,100.00
2023-05-17T23:19:29.898Z,100.00
2023-05-17T23:21:57.086Z,100.00
2023-05-17T23:24:25.763Z,100.00
2023-05-17T23:26:52.701Z,100.00
2023-05-17T23:29:20.011Z,100.00
2023-05-17T23:31:48.184Z,100.00
2023-05-17T23:34:15.547Z,100.00
2023-05-17T23:36:42.049Z,100.00
2023-05-17T23:39:09.090Z,100.00
2023-05-17T23:41:37.757Z,100.00
2023-05-17T23:44:05.447Z,100.00
2023-05-17T23:46:32.353Z,100.00
2023-05-17T23:48:58.882Z,100.00
2023-05-17T23:51:25.664Z,100.00
2023-05-17T23:53:52.356Z,100.00
2023-05-17T23:56:19.509Z,100.00
2023-05-17T23:58:46.830Z,100.00
